sensor_id;sensor_type;location;lat;lon;timestamp;P1;durP1;ratioP1;P2;durP2;ratioP2
61385;SDS011;47256;18.904;-99.054;2024-03-25T00:01:47;11.32;;;2.63;;
61385;SDS011;47256;18.904;-99.054;2024-03-25T00:04:14;7.43;;;1.90;;
61385;SDS011;47256;18.904;-99.054;2024-03-25T00:06:43;11.23;;;2.97;;
61385;SDS011;47256;18.904;-99.054;2024-03-25T00:09:10;10.38;;;3.03;;
61385;SDS011;47256;18.904;-99.054;2024-03-25T00:11:41;8.13;;;2.58;;
61385;SDS011;47256;18.904;-99.054;2024-03-25T00:14:08;12.48;;;3.22;;
61385;SDS011;47256;18.904;-99.054;2024-03-25T00:16:37;9.93;;;3.28;;
61385;SDS011;47256;18.904;-99.054;2024-03-25T00:19:05;8.40;;;2.70;;
61385;SDS011;47256;18.904;-99.054;2024-03-25T00:21:33;9.55;;;3.10;;
61385;SDS011;47256;18.904;-99.054;2024-03-25T00:24:00;9.85;;;3.25;;
61385;SDS011;47256;18.904;-99.054;2024-03-25T00:26:28;9.30;;;3.03;;
61385;SDS011;47256;18.904;-99.054;2024-03-25T00:28:55;5.65;;;2.50;;
61385;SDS011;47256;18.904;-99.054;2024-03-25T00:31:23;11.18;;;3.40;;
61385;SDS011;47256;18.904;-99.054;2024-03-25T00:33:50;2.63;;;2.28;;
61385;SDS011;47256;18.904;-99.054;2024-03-25T00:36:19;3.92;;;2.40;;
61385;SDS011;47256;18.904;-99.054;2024-03-25T00:38:46;9.23;;;3.45;;
61385;SDS011;47256;18.904;-99.054;2024-03-25T00:41:15;10.20;;;2.40;;
61385;SDS011;47256;18.904;-99.054;2024-03-25T00:43:42;6.18;;;2.65;;
61385;SDS011;47256;18.904;-99.054;2024-03-25T00:46:10;8.25;;;3.45;;
61385;SDS011;47256;18.904;-99.054;2024-03-25T00:48:37;4.10;;;1.88;;
61385;SDS011;47256;18.904;-99.054;2024-03-25T00:51:04;5.68;;;2.50;;
61385;SDS011;47256;18.904;-99.054;2024-03-25T00:53:32;5.05;;;2.30;;
61385;SDS011;47256;18.904;-99.054;2024-03-25T00:56:00;4.20;;;1.92;;
61385;SDS011;47256;18.904;-99.054;2024-03-25T00:58:27;7.85;;;2.25;;
61385;SDS011;47256;18.904;-99.054;2024-03-25T01:00:56;4.65;;;2.05;;
61385;SDS011;47256;18.904;-99.054;2024-03-25T01:03:23;6.22;;;2.13;;
61385;SDS011;47256;18.904;-99.054;2024-03-25T01:05:50;6.53;;;2.28;;
61385;SDS011;47256;18.904;-99.054;2024-03-25T01:08:18;5.45;;;2.55;;
61385;SDS011;47256;18.904;-99.054;2024-03-25T01:10:48;4.40;;;3.15;;
61385;SDS011;47256;18.904;-99.054;2024-03-25T01:13:16;6.47;;;3.95;;
61385;SDS011;47256;18.904;-99.054;2024-03-25T01:15:44;12.23;;;5.18;;
61385;SDS011;47256;18.904;-99.054;2024-03-25T01:18:12;8.05;;;4.25;;
61385;SDS011;47256;18.904;-99.054;2024-03-25T01:20:40;5.75;;;4.88;;
61385;SDS011;47256;18.904;-99.054;2024-03-25T01:23:08;11.18;;;4.70;;
61385;SDS011;47256;18.904;-99.054;2024-03-25T01:25:36;11.43;;;5.47;;
61385;SDS011;47256;18.904;-99.054;2024-03-25T01:28:03;16.85;;;5.38;;
61385;SDS011;47256;18.904;-99.054;2024-03-25T01:30:30;16.35;;;5.53;;
61385;SDS011;47256;18.904;-99.054;2024-03-25T01:33:01;6.00;;;4.50;;
61385;SDS011;47256;18.904;-99.054;2024-03-25T01:35:29;15.10;;;6.32;;
61385;SDS011;47256;18.904;-99.054;2024-03-25T01:37:57;31.85;;;15.95;;
61385;SDS011;47256;18.904;-99.054;2024-03-25T01:40:26;25.77;;;13.30;;
61385;SDS011;47256;18.904;-99.054;2024-03-25T01:42:56;46.60;;;26.52;;
61385;SDS011;47256;18.904;-99.054;2024-03-25T01:45:26;24.85;;;11.60;;
61385;SDS011;47256;18.904;-99.054;2024-03-25T01:48:07;18.50;;;9.50;;
61385;SDS011;47256;18.904;-99.054;2024-03-25T01:50:41;17.05;;;5.88;;
61385;SDS011;47256;18.904;-99.054;2024-03-25T01:53:11;17.05;;;6.82;;
61385;SDS011;47256;18.904;-99.054;2024-03-25T01:55:41;13.95;;;6.35;;
61385;SDS011;47256;18.904;-99.054;2024-03-25T01:58:09;10.65;;;4.75;;
61385;SDS011;47256;18.904;-99.054;2024-03-25T02:00:38;6.78;;;4.25;;
61385;SDS011;47256;18.904;-99.054;2024-03-25T02:03:05;13.95;;;5.40;;
61385;SDS011;47256;18.904;-99.054;2024-03-25T02:05:33;53.92;;;9.50;;
61385;SDS011;47256;18.904;-99.054;2024-03-25T02:08:01;258.02;;;25.90;;
61385;SDS011;47256;18.904;-99.054;2024-03-25T02:10:31;77.20;;;13.35;;
61385;SDS011;47256;18.904;-99.054;2024-03-25T02:12:59;86.47;;;13.27;;
61385;SDS011;47256;18.904;-99.054;2024-03-25T02:15:29;59.70;;;12.60;;
61385;SDS011;47256;18.904;-99.054;2024-03-25T02:17:57;49.83;;;11.30;;
61385;SDS011;47256;18.904;-99.054;2024-03-25T02:20:25;31.48;;;10.07;;
61385;SDS011;47256;18.904;-99.054;2024-03-25T02:22:53;27.25;;;8.68;;
61385;SDS011;47256;18.904;-99.054;2024-03-25T02:25:22;27.15;;;8.93;;
61385;SDS011;47256;18.904;-99.054;2024-03-25T02:27:50;25.88;;;9.40;;
61385;SDS011;47256;18.904;-99.054;2024-03-25T02:30:18;24.92;;;10.23;;
61385;SDS011;47256;18.904;-99.054;2024-03-25T02:32:45;26.83;;;10.30;;
61385;SDS011;47256;18.904;-99.054;2024-03-25T02:35:13;30.48;;;10.48;;
61385;SDS011;47256;18.904;-99.054;2024-03-25T02:37:42;27.60;;;11.23;;
61385;SDS011;47256;18.904;-99.054;2024-03-25T02:40:11;19.13;;;10.32;;
61385;SDS011;47256;18.904;-99.054;2024-03-25T02:42:38;24.13;;;9.75;;
61385;SDS011;47256;18.904;-99.054;2024-03-25T02:45:06;33.30;;;11.63;;
61385;SDS011;47256;18.904;-99.054;2024-03-25T02:47:34;75.47;;;13.25;;
61385;SDS011;47256;18.904;-99.054;2024-03-25T02:50:01;36.75;;;10.40;;
61385;SDS011;47256;18.904;-99.054;2024-03-25T02:52:29;39.58;;;10.60;;
61385;SDS011;47256;18.904;-99.054;2024-03-25T02:54:57;29.27;;;7.72;;
61385;SDS011;47256;18.904;-99.054;2024-03-25T02:57:25;30.45;;;8.07;;
61385;SDS011;47256;18.904;-99.054;2024-03-25T02:59:53;28.40;;;7.22;;
61385;SDS011;47256;18.904;-99.054;2024-03-25T03:02:20;20.42;;;6.40;;
61385;SDS011;47256;18.904;-99.054;2024-03-25T03:04:50;23.67;;;6.82;;
61385;SDS011;47256;18.904;-99.054;2024-03-25T03:07:17;18.35;;;6.65;;
61385;SDS011;47256;18.904;-99.054;2024-03-25T03:09:45;23.60;;;7.20;;
61385;SDS011;47256;18.904;-99.054;2024-03-25T03:12:14;20.23;;;6.53;;
61385;SDS011;47256;18.904;-99.054;2024-03-25T03:14:42;16.38;;;5.82;;
61385;SDS011;47256;18.904;-99.054;2024-03-25T03:17:09;10.82;;;4.93;;
61385;SDS011;47256;18.904;-99.054;2024-03-25T03:19:38;23.70;;;6.07;;
61385;SDS011;47256;18.904;-99.054;2024-03-25T03:22:06;11.10;;;4.60;;
61385;SDS011;47256;18.904;-99.054;2024-03-25T03:24:33;9.32;;;4.85;;
61385;SDS011;47256;18.904;-99.054;2024-03-25T03:27:01;11.80;;;4.90;;
61385;SDS011;47256;18.904;-99.054;2024-03-25T03:29:30;11.55;;;4.43;;
61385;SDS011;47256;18.904;-99.054;2024-03-25T03:31:57;17.10;;;6.88;;
61385;SDS011;47256;18.904;-99.054;2024-03-25T03:34:24;10.13;;;4.60;;
61385;SDS011;47256;18.904;-99.054;2024-03-25T03:36:52;5.88;;;3.83;;
61385;SDS011;47256;18.904;-99.054;2024-03-25T03:39:19;12.90;;;4.78;;
61385;SDS011;47256;18.904;-99.054;2024-03-25T03:41:47;10.48;;;4.82;;
61385;SDS011;47256;18.904;-99.054;2024-03-25T03:44:14;10.88;;;5.30;;
61385;SDS011;47256;18.904;-99.054;2024-03-25T03:46:41;12.32;;;5.38;;
61385;SDS011;47256;18.904;-99.054;2024-03-25T03:49:09;13.95;;;5.68;;
61385;SDS011;47256;18.904;-99.054;2024-03-25T03:51:36;16.08;;;5.25;;
61385;SDS011;47256;18.904;-99.054;2024-03-25T03:54:04;10.73;;;5.03;;
61385;SDS011;47256;18.904;-99.054;2024-03-25T03:56:32;12.38;;;4.90;;
61385;SDS011;47256;18.904;-99.054;2024-03-25T03:59:00;14.95;;;5.30;;
61385;SDS011;47256;18.904;-99.054;2024-03-25T04:01:28;20.45;;;9.10;;
61385;SDS011;47256;18.904;-99.054;2024-03-25T04:03:55;19.60;;;8.57;;
61385;SDS011;47256;18.904;-99.054;2024-03-25T04:06:23;23.63;;;8.95;;
61385;SDS011;47256;18.904;-99.054;2024-03-25T04:08:50;19.67;;;7.80;;
61385;SDS011;47256;18.904;-99.054;2024-03-25T04:11:19;15.10;;;6.65;;
61385;SDS011;47256;18.904;-99.054;2024-03-25T04:13:49;24.50;;;7.25;;
61385;SDS011;47256;18.904;-99.054;2024-03-25T04:16:17;23.58;;;6.95;;
61385;SDS011;47256;18.904;-99.054;2024-03-25T04:18:47;14.70;;;6.53;;
61385;SDS011;47256;18.904;-99.054;2024-03-25T04:21:15;18.60;;;6.53;;
61385;SDS011;47256;18.904;-99.054;2024-03-25T04:23:43;14.32;;;6.82;;
61385;SDS011;47256;18.904;-99.054;2024-03-25T04:26:11;14.68;;;5.32;;
61385;SDS011;47256;18.904;-99.054;2024-03-25T04:28:38;21.83;;;6.90;;
61385;SDS011;47256;18.904;-99.054;2024-03-25T04:31:05;17.13;;;7.03;;
61385;SDS011;47256;18.904;-99.054;2024-03-25T04:33:34;17.75;;;5.60;;
61385;SDS011;47256;18.904;-99.054;2024-03-25T04:36:01;11.07;;;6.03;;
61385;SDS011;47256;18.904;-99.054;2024-03-25T04:38:30;13.63;;;5.55;;
61385;SDS011;47256;18.904;-99.054;2024-03-25T04:40:59;18.27;;;6.50;;
61385;SDS011;47256;18.904;-99.054;2024-03-25T04:43:27;10.25;;;5.40;;
61385;SDS011;47256;18.904;-99.054;2024-03-25T04:45:54;13.25;;;6.60;;
61385;SDS011;47256;18.904;-99.054;2024-03-25T04:48:21;13.48;;;5.75;;
61385;SDS011;47256;18.904;-99.054;2024-03-25T04:50:49;17.73;;;6.03;;
61385;SDS011;47256;18.904;-99.054;2024-03-25T04:53:16;11.68;;;6.10;;
61385;SDS011;47256;18.904;-99.054;2024-03-25T04:55:43;31.40;;;10.18;;
61385;SDS011;47256;18.904;-99.054;2024-03-25T04:58:13;15.60;;;7.20;;
61385;SDS011;47256;18.904;-99.054;2024-03-25T05:00:40;17.23;;;5.63;;
61385;SDS011;47256;18.904;-99.054;2024-03-25T05:03:08;12.32;;;5.82;;
61385;SDS011;47256;18.904;-99.054;2024-03-25T05:05:35;23.77;;;7.88;;
61385;SDS011;47256;18.904;-99.054;2024-03-25T05:08:04;19.52;;;7.07;;
61385;SDS011;47256;18.904;-99.054;2024-03-25T05:10:31;14.77;;;5.75;;
61385;SDS011;47256;18.904;-99.054;2024-03-25T05:13:00;18.88;;;7.55;;
61385;SDS011;47256;18.904;-99.054;2024-03-25T05:15:28;30.20;;;9.23;;
61385;SDS011;47256;18.904;-99.054;2024-03-25T05:17:58;14.75;;;5.38;;
61385;SDS011;47256;18.904;-99.054;2024-03-25T05:20:27;20.63;;;5.07;;
61385;SDS011;47256;18.904;-99.054;2024-03-25T05:22:55;13.20;;;4.50;;
61385;SDS011;47256;18.904;-99.054;2024-03-25T05:25:23;9.20;;;3.92;;
61385;SDS011;47256;18.904;-99.054;2024-03-25T05:27:54;7.63;;;4.03;;
61385;SDS011;47256;18.904;-99.054;2024-03-25T05:30:21;6.80;;;3.80;;
61385;SDS011;47256;18.904;-99.054;2024-03-25T05:32:49;12.57;;;3.97;;
61385;SDS011;47256;18.904;-99.054;2024-03-25T05:35:17;11.02;;;4.72;;
61385;SDS011;47256;18.904;-99.054;2024-03-25T05:37:45;10.63;;;4.32;;
61385;SDS011;47256;18.904;-99.054;2024-03-25T05:40:13;9.38;;;4.90;;
61385;SDS011;47256;18.904;-99.054;2024-03-25T05:42:44;20.33;;;5.38;;
61385;SDS011;47256;18.904;-99.054;2024-03-25T05:45:12;19.48;;;4.82;;
61385;SDS011;47256;18.904;-99.054;2024-03-25T05:47:40;29.30;;;6.35;;
61385;SDS011;47256;18.904;-99.054;2024-03-25T05:50:08;19.75;;;6.65;;
61385;SDS011;47256;18.904;-99.054;2024-03-25T05:52:35;16.55;;;6.45;;
61385;SDS011;47256;18.904;-99.054;2024-03-25T05:55:03;19.77;;;5.95;;
61385;SDS011;47256;18.904;-99.054;2024-03-25T05:57:31;22.58;;;6.35;;
61385;SDS011;47256;18.904;-99.054;2024-03-25T05:59:59;16.23;;;6.95;;
61385;SDS011;47256;18.904;-99.054;2024-03-25T06:02:26;15.57;;;6.28;;
61385;SDS011;47256;18.904;-99.054;2024-03-25T06:04:53;12.57;;;5.80;;
61385;SDS011;47256;18.904;-99.054;2024-03-25T06:07:22;11.85;;;5.05;;
61385;SDS011;47256;18.904;-99.054;2024-03-25T06:09:49;18.83;;;5.30;;
61385;SDS011;47256;18.904;-99.054;2024-03-25T06:12:18;15.82;;;5.03;;
61385;SDS011;47256;18.904;-99.054;2024-03-25T06:14:47;19.55;;;5.57;;
61385;SDS011;47256;18.904;-99.054;2024-03-25T06:17:16;14.65;;;4.70;;
61385;SDS011;47256;18.904;-99.054;2024-03-25T06:19:43;18.27;;;5.68;;
61385;SDS011;47256;18.904;-99.054;2024-03-25T06:22:11;16.27;;;5.57;;
61385;SDS011;47256;18.904;-99.054;2024-03-25T06:24:39;11.45;;;4.78;;
61385;SDS011;47256;18.904;-99.054;2024-03-25T06:27:08;7.28;;;4.78;;
61385;SDS011;47256;18.904;-99.054;2024-03-25T06:29:36;14.20;;;4.50;;
61385;SDS011;47256;18.904;-99.054;2024-03-25T06:32:03;9.27;;;4.50;;
61385;SDS011;47256;18.904;-99.054;2024-03-25T06:34:49;6.55;;;4.10;;
61385;SDS011;47256;18.904;-99.054;2024-03-25T06:37:16;9.07;;;4.38;;
61385;SDS011;47256;18.904;-99.054;2024-03-25T06:39:44;12.38;;;4.93;;
61385;SDS011;47256;18.904;-99.054;2024-03-25T06:42:11;14.63;;;5.45;;
61385;SDS011;47256;18.904;-99.054;2024-03-25T06:44:39;9.82;;;5.05;;
61385;SDS011;47256;18.904;-99.054;2024-03-25T06:47:09;14.55;;;4.32;;
61385;SDS011;47256;18.904;-99.054;2024-03-25T06:49:36;9.93;;;5.38;;
61385;SDS011;47256;18.904;-99.054;2024-03-25T06:52:05;9.70;;;4.78;;
61385;SDS011;47256;18.904;-99.054;2024-03-25T06:54:32;8.35;;;4.35;;
61385;SDS011;47256;18.904;-99.054;2024-03-25T06:57:03;14.48;;;5.43;;
61385;SDS011;47256;18.904;-99.054;2024-03-25T06:59:31;11.23;;;5.22;;
61385;SDS011;47256;18.904;-99.054;2024-03-25T07:02:02;18.88;;;5.72;;
61385;SDS011;47256;18.904;-99.054;2024-03-25T07:04:29;18.10;;;6.63;;
61385;SDS011;47256;18.904;-99.054;2024-03-25T07:06:56;16.48;;;7.00;;
61385;SDS011;47256;18.904;-99.054;2024-03-25T07:09:24;20.27;;;6.88;;
61385;SDS011;47256;18.904;-99.054;2024-03-25T07:11:52;16.52;;;7.47;;
61385;SDS011;47256;18.904;-99.054;2024-03-25T07:14:19;21.98;;;6.97;;
61385;SDS011;47256;18.904;-99.054;2024-03-25T07:16:48;24.23;;;6.75;;
61385;SDS011;47256;18.904;-99.054;2024-03-25T07:19:15;21.58;;;7.65;;
61385;SDS011;47256;18.904;-99.054;2024-03-25T07:21:46;20.35;;;7.55;;
61385;SDS011;47256;18.904;-99.054;2024-03-25T07:24:13;21.95;;;7.68;;
61385;SDS011;47256;18.904;-99.054;2024-03-25T07:26:41;28.50;;;8.75;;
61385;SDS011;47256;18.904;-99.054;2024-03-25T07:29:08;33.85;;;10.38;;
61385;SDS011;47256;18.904;-99.054;2024-03-25T07:31:36;36.80;;;11.38;;
61385;SDS011;47256;18.904;-99.054;2024-03-25T07:34:03;33.20;;;12.10;;
61385;SDS011;47256;18.904;-99.054;2024-03-25T07:36:33;25.50;;;12.57;;
61385;SDS011;47256;18.904;-99.054;2024-03-25T07:39:03;27.98;;;13.43;;
61385;SDS011;47256;18.904;-99.054;2024-03-25T07:41:32;31.70;;;10.80;;
61385;SDS011;47256;18.904;-99.054;2024-03-25T07:44:00;30.58;;;10.82;;
61385;SDS011;47256;18.904;-99.054;2024-03-25T07:46:27;27.33;;;12.35;;
61385;SDS011;47256;18.904;-99.054;2024-03-25T07:48:55;40.88;;;14.93;;
61385;SDS011;47256;18.904;-99.054;2024-03-25T07:51:24;28.80;;;13.30;;
61385;SDS011;47256;18.904;-99.054;2024-03-25T07:53:52;25.88;;;13.45;;
61385;SDS011;47256;18.904;-99.054;2024-03-25T07:56:20;33.97;;;13.77;;
61385;SDS011;47256;18.904;-99.054;2024-03-25T07:58:48;36.50;;;14.35;;
61385;SDS011;47256;18.904;-99.054;2024-03-25T08:01:16;26.77;;;13.05;;
61385;SDS011;47256;18.904;-99.054;2024-03-25T08:03:44;26.70;;;11.98;;
61385;SDS011;47256;18.904;-99.054;2024-03-25T08:06:11;28.60;;;12.95;;
61385;SDS011;47256;18.904;-99.054;2024-03-25T08:08:39;31.65;;;11.77;;
61385;SDS011;47256;18.904;-99.054;2024-03-25T08:11:06;28.90;;;11.65;;
61385;SDS011;47256;18.904;-99.054;2024-03-25T08:13:37;25.38;;;11.68;;
61385;SDS011;47256;18.904;-99.054;2024-03-25T08:16:04;23.90;;;11.20;;
61385;SDS011;47256;18.904;-99.054;2024-03-25T08:18:33;18.95;;;9.60;;
61385;SDS011;47256;18.904;-99.054;2024-03-25T08:21:01;22.13;;;10.57;;
61385;SDS011;47256;18.904;-99.054;2024-03-25T08:23:29;25.77;;;10.57;;
61385;SDS011;47256;18.904;-99.054;2024-03-25T08:25:56;21.88;;;12.30;;
61385;SDS011;47256;18.904;-99.054;2024-03-25T08:28:24;26.55;;;12.52;;
61385;SDS011;47256;18.904;-99.054;2024-03-25T08:30:51;23.85;;;13.13;;
61385;SDS011;47256;18.904;-99.054;2024-03-25T08:33:19;27.48;;;13.85;;
61385;SDS011;47256;18.904;-99.054;2024-03-25T08:35:46;22.80;;;12.80;;
61385;SDS011;47256;18.904;-99.054;2024-03-25T08:38:15;23.30;;;12.18;;
61385;SDS011;47256;18.904;-99.054;2024-03-25T08:40:42;24.10;;;12.95;;
61385;SDS011;47256;18.904;-99.054;2024-03-25T08:43:10;28.70;;;14.13;;
61385;SDS011;47256;18.904;-99.054;2024-03-25T08:45:38;23.13;;;13.90;;
61385;SDS011;47256;18.904;-99.054;2024-03-25T08:48:06;25.05;;;14.23;;
61385;SDS011;47256;18.904;-99.054;2024-03-25T08:50:34;26.30;;;13.95;;
61385;SDS011;47256;18.904;-99.054;2024-03-25T08:53:01;27.73;;;13.98;;
61385;SDS011;47256;18.904;-99.054;2024-03-25T08:55:30;26.38;;;14.23;;
61385;SDS011;47256;18.904;-99.054;2024-03-25T08:57:58;24.65;;;14.13;;
61385;SDS011;47256;18.904;-99.054;2024-03-25T09:00:29;24.83;;;12.80;;
61385;SDS011;47256;18.904;-99.054;2024-03-25T09:02:56;22.08;;;12.07;;
61385;SDS011;47256;18.904;-99.054;2024-03-25T09:05:23;23.65;;;12.88;;
61385;SDS011;47256;18.904;-99.054;2024-03-25T09:07:51;23.95;;;11.90;;
61385;SDS011;47256;18.904;-99.054;2024-03-25T09:10:19;25.35;;;11.85;;
61385;SDS011;47256;18.904;-99.054;2024-03-25T09:13:05;25.50;;;11.93;;
61385;SDS011;47256;18.904;-99.054;2024-03-25T09:15:35;25.58;;;11.80;;
61385;SDS011;47256;18.904;-99.054;2024-03-25T09:18:02;26.98;;;12.50;;
61385;SDS011;47256;18.904;-99.054;2024-03-25T09:20:31;23.45;;;12.60;;
61385;SDS011;47256;18.904;-99.054;2024-03-25T09:22:59;31.55;;;11.77;;
61385;SDS011;47256;18.904;-99.054;2024-03-25T09:25:26;23.08;;;11.75;;
61385;SDS011;47256;18.904;-99.054;2024-03-25T09:27:54;29.60;;;12.43;;
61385;SDS011;47256;18.904;-99.054;2024-03-25T09:30:21;112.25;;;18.27;;
61385;SDS011;47256;18.904;-99.054;2024-03-25T09:32:49;62.17;;;15.48;;
61385;SDS011;47256;18.904;-99.054;2024-03-25T09:35:16;48.95;;;13.65;;
61385;SDS011;47256;18.904;-99.054;2024-03-25T09:37:43;60.08;;;13.73;;
61385;SDS011;47256;18.904;-99.054;2024-03-25T09:40:11;61.08;;;15.70;;
61385;SDS011;47256;18.904;-99.054;2024-03-25T09:42:48;51.80;;;15.65;;
61385;SDS011;47256;18.904;-99.054;2024-03-25T09:45:24;43.05;;;15.52;;
61385;SDS011;47256;18.904;-99.054;2024-03-25T09:47:51;58.17;;;15.18;;
61385;SDS011;47256;18.904;-99.054;2024-03-25T09:50:22;54.58;;;15.27;;
61385;SDS011;47256;18.904;-99.054;2024-03-25T09:52:49;57.70;;;17.10;;
61385;SDS011;47256;18.904;-99.054;2024-03-25T09:55:19;43.58;;;15.55;;
61385;SDS011;47256;18.904;-99.054;2024-03-25T09:57:48;43.20;;;15.13;;
61385;SDS011;47256;18.904;-99.054;2024-03-25T10:00:16;61.42;;;17.17;;
61385;SDS011;47256;18.904;-99.054;2024-03-25T10:02:44;38.08;;;13.77;;
61385;SDS011;47256;18.904;-99.054;2024-03-25T10:05:12;37.88;;;13.30;;
61385;SDS011;47256;18.904;-99.054;2024-03-25T10:07:39;36.05;;;12.90;;
61385;SDS011;47256;18.904;-99.054;2024-03-25T10:10:06;52.92;;;15.00;;
61385;SDS011;47256;18.904;-99.054;2024-03-25T10:12:36;36.58;;;13.95;;
61385;SDS011;47256;18.904;-99.054;2024-03-25T10:15:04;20.05;;;9.65;;
61385;SDS011;47256;18.904;-99.054;2024-03-25T10:17:33;23.95;;;12.00;;
61385;SDS011;47256;18.904;-99.054;2024-03-25T10:20:01;25.23;;;11.68;;
61385;SDS011;47256;18.904;-99.054;2024-03-25T10:22:40;25.08;;;11.00;;
61385;SDS011;47256;18.904;-99.054;2024-03-25T10:27:58;25.73;;;11.00;;
61385;SDS011;47256;18.904;-99.054;2024-03-25T10:30:26;19.13;;;10.95;;
61385;SDS011;47256;18.904;-99.054;2024-03-25T10:33:04;22.42;;;9.45;;
61385;SDS011;47256;18.904;-99.054;2024-03-25T10:35:36;19.10;;;10.57;;
61385;SDS011;47256;18.904;-99.054;2024-03-25T10:38:07;23.77;;;10.10;;
61385;SDS011;47256;18.904;-99.054;2024-03-25T10:40:39;16.02;;;9.43;;
61385;SDS011;47256;18.904;-99.054;2024-03-25T10:43:10;17.80;;;9.30;;
61385;SDS011;47256;18.904;-99.054;2024-03-25T10:55:57;20.15;;;9.00;;
61385;SDS011;47256;18.904;-99.054;2024-03-25T10:58:27;17.92;;;8.38;;
61385;SDS011;47256;18.904;-99.054;2024-03-25T11:00:55;19.25;;;9.13;;
61385;SDS011;47256;18.904;-99.054;2024-03-25T11:03:24;19.88;;;8.90;;
61385;SDS011;47256;18.904;-99.054;2024-03-25T11:05:53;14.35;;;8.50;;
61385;SDS011;47256;18.904;-99.054;2024-03-25T11:08:29;19.90;;;8.57;;
61385;SDS011;47256;18.904;-99.054;2024-03-25T11:11:00;19.75;;;9.27;;
61385;SDS011;47256;18.904;-99.054;2024-03-25T11:13:29;16.25;;;7.68;;
61385;SDS011;47256;18.904;-99.054;2024-03-25T11:15:58;16.80;;;7.65;;
61385;SDS011;47256;18.904;-99.054;2024-03-25T11:18:28;24.33;;;8.65;;
61385;SDS011;47256;18.904;-99.054;2024-03-25T11:21:05;13.45;;;7.47;;
61385;SDS011;47256;18.904;-99.054;2024-03-25T11:23:35;10.68;;;6.38;;
61385;SDS011;47256;18.904;-99.054;2024-03-25T11:26:18;16.98;;;7.43;;
61385;SDS011;47256;18.904;-99.054;2024-03-25T11:28:57;16.08;;;7.22;;
61385;SDS011;47256;18.904;-99.054;2024-03-25T11:31:25;18.38;;;7.95;;
61385;SDS011;47256;18.904;-99.054;2024-03-25T11:33:54;16.52;;;6.97;;
61385;SDS011;47256;18.904;-99.054;2024-03-25T11:36:22;15.60;;;7.35;;
61385;SDS011;47256;18.904;-99.054;2024-03-25T11:39:01;21.52;;;7.57;;
61385;SDS011;47256;18.904;-99.054;2024-03-25T11:41:39;17.70;;;7.22;;
61385;SDS011;47256;18.904;-99.054;2024-03-25T11:44:10;23.20;;;9.65;;
61385;SDS011;47256;18.904;-99.054;2024-03-25T11:46:41;17.67;;;7.70;;
61385;SDS011;47256;18.904;-99.054;2024-03-25T11:49:11;16.42;;;7.60;;
61385;SDS011;47256;18.904;-99.054;2024-03-25T11:51:42;22.45;;;8.25;;
61385;SDS011;47256;18.904;-99.054;2024-03-25T11:54:12;16.58;;;8.52;;
61385;SDS011;47256;18.904;-99.054;2024-03-25T11:56:41;16.52;;;8.18;;
61385;SDS011;47256;18.904;-99.054;2024-03-25T11:59:09;20.17;;;9.15;;
61385;SDS011;47256;18.904;-99.054;2024-03-25T12:01:39;18.33;;;8.55;;
61385;SDS011;47256;18.904;-99.054;2024-03-25T12:04:11;16.60;;;8.65;;
61385;SDS011;47256;18.904;-99.054;2024-03-25T12:06:42;21.60;;;10.10;;
61385;SDS011;47256;18.904;-99.054;2024-03-25T12:09:10;21.83;;;10.45;;
61385;SDS011;47256;18.904;-99.054;2024-03-25T12:11:57;22.25;;;9.32;;
61385;SDS011;47256;18.904;-99.054;2024-03-25T12:14:27;19.45;;;9.50;;
61385;SDS011;47256;18.904;-99.054;2024-03-25T12:16:56;32.67;;;11.65;;
61385;SDS011;47256;18.904;-99.054;2024-03-25T12:19:24;23.80;;;11.55;;
61385;SDS011;47256;18.904;-99.054;2024-03-25T12:21:59;26.27;;;12.07;;
61385;SDS011;47256;18.904;-99.054;2024-03-25T12:24:28;20.75;;;10.85;;
61385;SDS011;47256;18.904;-99.054;2024-03-25T12:26:55;22.70;;;12.32;;
61385;SDS011;47256;18.904;-99.054;2024-03-25T12:29:22;27.00;;;11.52;;
61385;SDS011;47256;18.904;-99.054;2024-03-25T12:31:56;25.95;;;11.95;;
61385;SDS011;47256;18.904;-99.054;2024-03-25T12:34:27;30.77;;;12.85;;
61385;SDS011;47256;18.904;-99.054;2024-03-25T12:37:00;32.20;;;11.57;;
61385;SDS011;47256;18.904;-99.054;2024-03-25T12:42:03;24.98;;;12.27;;
61385;SDS011;47256;18.904;-99.054;2024-03-25T12:44:31;31.45;;;12.00;;
61385;SDS011;47256;18.904;-99.054;2024-03-25T12:46:59;21.70;;;11.88;;
61385;SDS011;47256;18.904;-99.054;2024-03-25T12:49:26;25.63;;;12.18;;
61385;SDS011;47256;18.904;-99.054;2024-03-25T12:51:54;37.17;;;13.40;;
61385;SDS011;47256;18.904;-99.054;2024-03-25T12:54:22;31.80;;;13.82;;
61385;SDS011;47256;18.904;-99.054;2024-03-25T12:56:50;31.75;;;16.10;;
61385;SDS011;47256;18.904;-99.054;2024-03-25T12:59:18;33.67;;;12.43;;
61385;SDS011;47256;18.904;-99.054;2024-03-25T13:01:45;28.17;;;12.75;;
61385;SDS011;47256;18.904;-99.054;2024-03-25T13:04:12;39.30;;;13.77;;
61385;SDS011;47256;18.904;-99.054;2024-03-25T13:06:40;38.65;;;13.02;;
61385;SDS011;47256;18.904;-99.054;2024-03-25T13:09:08;30.83;;;14.23;;
61385;SDS011;47256;18.904;-99.054;2024-03-25T13:11:36;30.73;;;13.23;;
61385;SDS011;47256;18.904;-99.054;2024-03-25T13:14:04;61.45;;;15.05;;
61385;SDS011;47256;18.904;-99.054;2024-03-25T13:16:33;39.80;;;15.50;;
61385;SDS011;47256;18.904;-99.054;2024-03-25T13:19:02;34.90;;;14.32;;
61385;SDS011;47256;18.904;-99.054;2024-03-25T13:21:30;47.63;;;15.45;;
61385;SDS011;47256;18.904;-99.054;2024-03-25T13:23:58;43.85;;;15.82;;
61385;SDS011;47256;18.904;-99.054;2024-03-25T13:26:27;37.13;;;17.10;;
61385;SDS011;47256;18.904;-99.054;2024-03-25T13:28:54;37.70;;;17.40;;
61385;SDS011;47256;18.904;-99.054;2024-03-25T13:31:21;38.35;;;15.43;;
61385;SDS011;47256;18.904;-99.054;2024-03-25T13:33:50;43.03;;;16.08;;
61385;SDS011;47256;18.904;-99.054;2024-03-25T13:36:18;34.42;;;14.65;;
61385;SDS011;47256;18.904;-99.054;2024-03-25T13:38:45;70.28;;;18.10;;
61385;SDS011;47256;18.904;-99.054;2024-03-25T13:41:14;56.75;;;17.55;;
61385;SDS011;47256;18.904;-99.054;2024-03-25T13:43:44;90.07;;;20.48;;
61385;SDS011;47256;18.904;-99.054;2024-03-25T13:46:14;64.43;;;17.27;;
61385;SDS011;47256;18.904;-99.054;2024-03-25T13:48:42;91.85;;;22.13;;
61385;SDS011;47256;18.904;-99.054;2024-03-25T13:51:09;103.07;;;26.45;;
61385;SDS011;47256;18.904;-99.054;2024-03-25T13:53:37;78.60;;;21.15;;
61385;SDS011;47256;18.904;-99.054;2024-03-25T13:56:05;67.35;;;22.88;;
61385;SDS011;47256;18.904;-99.054;2024-03-25T13:58:35;68.28;;;28.10;;
61385;SDS011;47256;18.904;-99.054;2024-03-25T14:01:02;75.65;;;27.73;;
61385;SDS011;47256;18.904;-99.054;2024-03-25T14:03:29;66.75;;;29.38;;
61385;SDS011;47256;18.904;-99.054;2024-03-25T14:05:56;63.58;;;29.80;;
61385;SDS011;47256;18.904;-99.054;2024-03-25T14:08:25;66.15;;;29.88;;
61385;SDS011;47256;18.904;-99.054;2024-03-25T14:10:56;69.45;;;29.65;;
61385;SDS011;47256;18.904;-99.054;2024-03-25T14:13:25;70.72;;;31.08;;
61385;SDS011;47256;18.904;-99.054;2024-03-25T14:15:53;98.43;;;36.88;;
61385;SDS011;47256;18.904;-99.054;2024-03-25T14:18:21;95.95;;;37.42;;
61385;SDS011;47256;18.904;-99.054;2024-03-25T14:20:51;91.15;;;32.95;;
61385;SDS011;47256;18.904;-99.054;2024-03-25T14:23:19;62.13;;;29.40;;
61385;SDS011;47256;18.904;-99.054;2024-03-25T14:25:46;66.72;;;30.35;;
61385;SDS011;47256;18.904;-99.054;2024-03-25T14:28:13;68.00;;;32.67;;
61385;SDS011;47256;18.904;-99.054;2024-03-25T14:30:41;69.72;;;30.77;;